sensor_id;sensor_type;location;lat;lon;timestamp;P1;durP1;ratioP1;P2;durP2;ratioP2
7116;SDS011;3600;48.568;7.870;2023-03-13T00:02:12;6.20;;;2.10;;
7116;SDS011;3600;48.568;7.870;2023-03-13T00:04:39;7.25;;;2.00;;
7116;SDS011;3600;48.568;7.870;2023-03-13T00:07:05;7.38;;;2.50;;
7116;SDS011;3600;48.568;7.870;2023-03-13T00:09:32;4.97;;;2.47;;
7116;SDS011;3600;48.568;7.870;2023-03-13T00:11:59;6.10;;;2.25;;
7116;SDS011;3600;48.568;7.870;2023-03-13T00:14:25;2.50;;;1.55;;
7116;SDS011;3600;48.568;7.870;2023-03-13T00:16:52;5.35;;;2.45;;
7116;SDS011;3600;48.568;7.870;2023-03-13T00:19:19;5.53;;;2.00;;
7116;SDS011;3600;48.568;7.870;2023-03-13T00:21:46;6.82;;;1.77;;
7116;SDS011;3600;48.568;7.870;2023-03-13T00:24:12;7.88;;;2.38;;
7116;SDS011;3600;48.568;7.870;2023-03-13T00:26:39;6.55;;;1.67;;
7116;SDS011;3600;48.568;7.870;2023-03-13T00:29:06;5.25;;;2.00;;
7116;SDS011;3600;48.568;7.870;2023-03-13T00:31:33;4.03;;;1.73;;
7116;SDS011;3600;48.568;7.870;2023-03-13T00:34:00;5.75;;;1.90;;
7116;SDS011;3600;48.568;7.870;2023-03-13T00:36:29;6.13;;;2.15;;
7116;SDS011;3600;48.568;7.870;2023-03-13T00:38:58;2.33;;;1.50;;
7116;SDS011;3600;48.568;7.870;2023-03-13T00:41:26;7.85;;;1.98;;
7116;SDS011;3600;48.568;7.870;2023-03-13T00:43:55;4.18;;;1.88;;
7116;SDS011;3600;48.568;7.870;2023-03-13T00:46:23;4.78;;;1.67;;
7116;SDS011;3600;48.568;7.870;2023-03-13T00:48:51;5.35;;;1.50;;
7116;SDS011;3600;48.568;7.870;2023-03-13T00:51:19;4.45;;;1.58;;
7116;SDS011;3600;48.568;7.870;2023-03-13T00:53:47;2.97;;;1.63;;
7116;SDS011;3600;48.568;7.870;2023-03-13T00:56:15;4.90;;;1.58;;
7116;SDS011;3600;48.568;7.870;2023-03-13T00:58:43;2.60;;;1.25;;
7116;SDS011;3600;48.568;7.870;2023-03-13T01:01:24;2.85;;;1.30;;
7116;SDS011;3600;48.568;7.870;2023-03-13T01:04:00;6.43;;;1.52;;
7116;SDS011;3600;48.568;7.870;2023-03-13T01:06:29;2.28;;;1.35;;
7116;SDS011;3600;48.568;7.870;2023-03-13T01:08:57;3.03;;;1.50;;
7116;SDS011;3600;48.568;7.870;2023-03-13T01:11:25;3.35;;;1.67;;
7116;SDS011;3600;48.568;7.870;2023-03-13T01:13:54;4.90;;;1.45;;
7116;SDS011;3600;48.568;7.870;2023-03-13T01:16:23;4.88;;;1.38;;
7116;SDS011;3600;48.568;7.870;2023-03-13T01:18:52;4.15;;;1.48;;
7116;SDS011;3600;48.568;7.870;2023-03-13T01:21:20;4.90;;;1.20;;
7116;SDS011;3600;48.568;7.870;2023-03-13T01:23:49;3.08;;;1.15;;
7116;SDS011;3600;48.568;7.870;2023-03-13T01:26:18;2.08;;;1.25;;
7116;SDS011;3600;48.568;7.870;2023-03-13T01:28:46;2.38;;;0.85;;
7116;SDS011;3600;48.568;7.870;2023-03-13T01:33:44;2.05;;;0.90;;
7116;SDS011;3600;48.568;7.870;2023-03-13T01:36:12;2.85;;;1.38;;
7116;SDS011;3600;48.568;7.870;2023-03-13T01:38:39;4.88;;;1.20;;
7116;SDS011;3600;48.568;7.870;2023-03-13T01:41:06;3.13;;;1.10;;
7116;SDS011;3600;48.568;7.870;2023-03-13T01:43:35;3.17;;;1.48;;
7116;SDS011;3600;48.568;7.870;2023-03-13T01:48:44;1.98;;;1.08;;
7116;SDS011;3600;48.568;7.870;2023-03-13T01:54:19;2.90;;;1.10;;
7116;SDS011;3600;48.568;7.870;2023-03-13T01:56:57;5.03;;;1.83;;
7116;SDS011;3600;48.568;7.870;2023-03-13T01:59:29;1.80;;;1.20;;
7116;SDS011;3600;48.568;7.870;2023-03-13T02:02:04;3.08;;;1.40;;
7116;SDS011;3600;48.568;7.870;2023-03-13T02:04:35;2.33;;;1.10;;
7116;SDS011;3600;48.568;7.870;2023-03-13T02:07:06;2.40;;;1.13;;
7116;SDS011;3600;48.568;7.870;2023-03-13T02:09:37;3.10;;;1.30;;
7116;SDS011;3600;48.568;7.870;2023-03-13T02:12:12;3.83;;;1.20;;
7116;SDS011;3600;48.568;7.870;2023-03-13T02:14:43;3.03;;;1.10;;
7116;SDS011;3600;48.568;7.870;2023-03-13T02:17:12;1.10;;;0.70;;
7116;SDS011;3600;48.568;7.870;2023-03-13T02:19:46;3.03;;;1.08;;
7116;SDS011;3600;48.568;7.870;2023-03-13T02:22:30;1.92;;;1.52;;
7116;SDS011;3600;48.568;7.870;2023-03-13T02:28:04;3.78;;;1.35;;
7116;SDS011;3600;48.568;7.870;2023-03-13T02:30:35;3.05;;;1.23;;
7116;SDS011;3600;48.568;7.870;2023-03-13T02:33:03;3.05;;;1.42;;
7116;SDS011;3600;48.568;7.870;2023-03-13T02:35:30;4.43;;;1.00;;
7116;SDS011;3600;48.568;7.870;2023-03-13T02:37:59;4.63;;;1.30;;
7116;SDS011;3600;48.568;7.870;2023-03-13T02:40:30;2.40;;;1.35;;
7116;SDS011;3600;48.568;7.870;2023-03-13T02:43:00;2.10;;;0.77;;
7116;SDS011;3600;48.568;7.870;2023-03-13T02:45:30;1.63;;;1.02;;
7116;SDS011;3600;48.568;7.870;2023-03-13T02:47:56;3.53;;;0.90;;
7116;SDS011;3600;48.568;7.870;2023-03-13T02:50:23;2.33;;;1.05;;
7116;SDS011;3600;48.568;7.870;2023-03-13T02:52:52;1.90;;;0.95;;
7116;SDS011;3600;48.568;7.870;2023-03-13T02:55:25;2.42;;;0.95;;
7116;SDS011;3600;48.568;7.870;2023-03-13T02:57:56;2.33;;;1.00;;
7116;SDS011;3600;48.568;7.870;2023-03-13T03:00:22;1.63;;;1.00;;
7116;SDS011;3600;48.568;7.870;2023-03-13T03:02:52;1.85;;;0.77;;
7116;SDS011;3600;48.568;7.870;2023-03-13T03:05:19;2.20;;;1.20;;
7116;SDS011;3600;48.568;7.870;2023-03-13T03:07:48;3.65;;;1.10;;
7116;SDS011;3600;48.568;7.870;2023-03-13T03:10:15;2.38;;;1.42;;
7116;SDS011;3600;48.568;7.870;2023-03-13T03:12:43;3.28;;;1.00;;
7116;SDS011;3600;48.568;7.870;2023-03-13T03:15:10;1.63;;;0.93;;
7116;SDS011;3600;48.568;7.870;2023-03-13T03:17:37;1.95;;;1.17;;
7116;SDS011;3600;48.568;7.870;2023-03-13T03:20:04;1.75;;;0.90;;
7116;SDS011;3600;48.568;7.870;2023-03-13T03:22:37;3.88;;;1.30;;
7116;SDS011;3600;48.568;7.870;2023-03-13T03:25:06;2.80;;;1.10;;
7116;SDS011;3600;48.568;7.870;2023-03-13T03:27:34;2.25;;;1.35;;
7116;SDS011;3600;48.568;7.870;2023-03-13T03:30:02;1.55;;;0.90;;
7116;SDS011;3600;48.568;7.870;2023-03-13T03:32:29;2.90;;;0.80;;
7116;SDS011;3600;48.568;7.870;2023-03-13T03:34:56;2.80;;;1.20;;
7116;SDS011;3600;48.568;7.870;2023-03-13T03:37:23;3.88;;;1.17;;
7116;SDS011;3600;48.568;7.870;2023-03-13T03:39:50;3.08;;;1.83;;
7116;SDS011;3600;48.568;7.870;2023-03-13T03:42:16;2.67;;;1.10;;
7116;SDS011;3600;48.568;7.870;2023-03-13T03:44:43;2.63;;;1.00;;
7116;SDS011;3600;48.568;7.870;2023-03-13T03:47:10;1.50;;;0.98;;
7116;SDS011;3600;48.568;7.870;2023-03-13T03:49:37;1.17;;;0.95;;
7116;SDS011;3600;48.568;7.870;2023-03-13T03:52:03;1.10;;;0.95;;
7116;SDS011;3600;48.568;7.870;2023-03-13T03:54:30;2.95;;;0.73;;
7116;SDS011;3600;48.568;7.870;2023-03-13T03:56:57;4.30;;;1.20;;
7116;SDS011;3600;48.568;7.870;2023-03-13T03:59:24;2.17;;;1.00;;
7116;SDS011;3600;48.568;7.870;2023-03-13T04:01:51;3.08;;;1.63;;
7116;SDS011;3600;48.568;7.870;2023-03-13T04:04:18;1.27;;;0.95;;
7116;SDS011;3600;48.568;7.870;2023-03-13T04:06:45;2.47;;;1.30;;
7116;SDS011;3600;48.568;7.870;2023-03-13T04:09:11;2.33;;;1.30;;
7116;SDS011;3600;48.568;7.870;2023-03-13T04:11:38;0.80;;;0.80;;
7116;SDS011;3600;48.568;7.870;2023-03-13T04:14:05;1.70;;;0.80;;
7116;SDS011;3600;48.568;7.870;2023-03-13T04:16:32;0.55;;;0.55;;
7116;SDS011;3600;48.568;7.870;2023-03-13T04:18:59;2.28;;;0.85;;
7116;SDS011;3600;48.568;7.870;2023-03-13T04:21:25;2.33;;;1.00;;
7116;SDS011;3600;48.568;7.870;2023-03-13T04:23:52;0.98;;;0.93;;
7116;SDS011;3600;48.568;7.870;2023-03-13T04:26:19;3.33;;;1.20;;
7116;SDS011;3600;48.568;7.870;2023-03-13T04:28:45;2.05;;;1.00;;
7116;SDS011;3600;48.568;7.870;2023-03-13T04:31:12;1.83;;;1.05;;
7116;SDS011;3600;48.568;7.870;2023-03-13T04:33:39;0.73;;;0.73;;
7116;SDS011;3600;48.568;7.870;2023-03-13T04:36:06;2.58;;;0.90;;
7116;SDS011;3600;48.568;7.870;2023-03-13T04:38:33;2.22;;;1.05;;
7116;SDS011;3600;48.568;7.870;2023-03-13T04:40:59;0.85;;;0.85;;
7116;SDS011;3600;48.568;7.870;2023-03-13T04:43:26;1.38;;;0.68;;
7116;SDS011;3600;48.568;7.870;2023-03-13T04:45:53;1.42;;;0.73;;
7116;SDS011;3600;48.568;7.870;2023-03-13T04:48:20;2.08;;;1.27;;
7116;SDS011;3600;48.568;7.870;2023-03-13T04:50:47;1.48;;;0.60;;
7116;SDS011;3600;48.568;7.870;2023-03-13T04:53:14;1.90;;;0.73;;
7116;SDS011;3600;48.568;7.870;2023-03-13T04:55:41;1.98;;;0.85;;
7116;SDS011;3600;48.568;7.870;2023-03-13T04:58:08;1.05;;;0.65;;
7116;SDS011;3600;48.568;7.870;2023-03-13T05:00:35;1.65;;;0.55;;
7116;SDS011;3600;48.568;7.870;2023-03-13T05:03:04;2.63;;;0.85;;
7116;SDS011;3600;48.568;7.870;2023-03-13T05:05:32;0.52;;;0.50;;
7116;SDS011;3600;48.568;7.870;2023-03-13T05:08:00;0.95;;;0.60;;
7116;SDS011;3600;48.568;7.870;2023-03-13T05:10:27;1.52;;;0.88;;
7116;SDS011;3600;48.568;7.870;2023-03-13T05:12:54;0.93;;;0.70;;
7116;SDS011;3600;48.568;7.870;2023-03-13T05:15:21;0.98;;;0.80;;
7116;SDS011;3600;48.568;7.870;2023-03-13T05:17:47;1.40;;;0.65;;
7116;SDS011;3600;48.568;7.870;2023-03-13T05:20:14;0.43;;;0.43;;
7116;SDS011;3600;48.568;7.870;2023-03-13T05:22:41;1.27;;;0.90;;
7116;SDS011;3600;48.568;7.870;2023-03-13T05:25:08;1.67;;;0.90;;
7116;SDS011;3600;48.568;7.870;2023-03-13T05:27:37;1.10;;;0.80;;
7116;SDS011;3600;48.568;7.870;2023-03-13T05:30:04;0.90;;;0.75;;
7116;SDS011;3600;48.568;7.870;2023-03-13T05:32:31;1.10;;;0.73;;
7116;SDS011;3600;48.568;7.870;2023-03-13T05:34:58;0.88;;;0.75;;
7116;SDS011;3600;48.568;7.870;2023-03-13T05:37:25;1.10;;;1.00;;
7116;SDS011;3600;48.568;7.870;2023-03-13T05:39:52;0.82;;;0.82;;
7116;SDS011;3600;48.568;7.870;2023-03-13T05:42:18;1.27;;;0.90;;
7116;SDS011;3600;48.568;7.870;2023-03-13T05:44:45;0.82;;;0.77;;
7116;SDS011;3600;48.568;7.870;2023-03-13T05:47:12;0.70;;;0.70;;
7116;SDS011;3600;48.568;7.870;2023-03-13T05:49:39;1.48;;;0.90;;
7116;SDS011;3600;48.568;7.870;2023-03-13T05:52:05;0.95;;;0.75;;
7116;SDS011;3600;48.568;7.870;2023-03-13T05:54:32;0.80;;;0.80;;
7116;SDS011;3600;48.568;7.870;2023-03-13T05:56:59;2.10;;;0.82;;
7116;SDS011;3600;48.568;7.870;2023-03-13T05:59:26;0.88;;;0.88;;
7116;SDS011;3600;48.568;7.870;2023-03-13T06:01:52;1.08;;;0.68;;
7116;SDS011;3600;48.568;7.870;2023-03-13T06:04:19;1.85;;;0.88;;
7116;SDS011;3600;48.568;7.870;2023-03-13T06:06:46;1.75;;;0.63;;
7116;SDS011;3600;48.568;7.870;2023-03-13T06:09:13;2.50;;;0.65;;
7116;SDS011;3600;48.568;7.870;2023-03-13T06:11:39;1.15;;;0.98;;
7116;SDS011;3600;48.568;7.870;2023-03-13T06:14:06;1.30;;;0.90;;
7116;SDS011;3600;48.568;7.870;2023-03-13T06:16:33;0.93;;;0.80;;
7116;SDS011;3600;48.568;7.870;2023-03-13T06:19:00;1.00;;;0.95;;
7116;SDS011;3600;48.568;7.870;2023-03-13T06:21:27;2.65;;;1.33;;
7116;SDS011;3600;48.568;7.870;2023-03-13T06:23:54;4.65;;;2.33;;
7116;SDS011;3600;48.568;7.870;2023-03-13T06:26:21;2.90;;;2.35;;
7116;SDS011;3600;48.568;7.870;2023-03-13T06:28:50;3.13;;;2.83;;
7116;SDS011;3600;48.568;7.870;2023-03-13T06:31:17;2.60;;;1.80;;
7116;SDS011;3600;48.568;7.870;2023-03-13T06:33:44;1.48;;;1.38;;
7116;SDS011;3600;48.568;7.870;2023-03-13T06:36:11;2.28;;;1.42;;
7116;SDS011;3600;48.568;7.870;2023-03-13T06:38:38;1.15;;;0.93;;
7116;SDS011;3600;48.568;7.870;2023-03-13T06:41:05;1.35;;;0.88;;
7116;SDS011;3600;48.568;7.870;2023-03-13T06:43:32;1.25;;;0.85;;
7116;SDS011;3600;48.568;7.870;2023-03-13T06:46:02;1.55;;;0.82;;
7116;SDS011;3600;48.568;7.870;2023-03-13T06:48:30;1.33;;;0.98;;
7116;SDS011;3600;48.568;7.870;2023-03-13T06:50:57;1.80;;;0.80;;
7116;SDS011;3600;48.568;7.870;2023-03-13T06:53:24;1.17;;;0.90;;
7116;SDS011;3600;48.568;7.870;2023-03-13T06:55:50;1.40;;;0.70;;
7116;SDS011;3600;48.568;7.870;2023-03-13T06:58:17;0.65;;;0.65;;
7116;SDS011;3600;48.568;7.870;2023-03-13T07:00:57;1.02;;;0.93;;
7116;SDS011;3600;48.568;7.870;2023-03-13T07:03:25;1.10;;;0.85;;
7116;SDS011;3600;48.568;7.870;2023-03-13T07:05:55;1.02;;;1.02;;
7116;SDS011;3600;48.568;7.870;2023-03-13T07:08:23;1.48;;;1.38;;
7116;SDS011;3600;48.568;7.870;2023-03-13T07:10:50;3.05;;;1.38;;
7116;SDS011;3600;48.568;7.870;2023-03-13T07:13:18;2.13;;;1.63;;
7116;SDS011;3600;48.568;7.870;2023-03-13T07:15:46;1.20;;;1.10;;
7116;SDS011;3600;48.568;7.870;2023-03-13T07:18:13;1.13;;;1.02;;
7116;SDS011;3600;48.568;7.870;2023-03-13T07:20:40;0.70;;;0.70;;
7116;SDS011;3600;48.568;7.870;2023-03-13T07:23:07;2.22;;;0.75;;
7116;SDS011;3600;48.568;7.870;2023-03-13T07:25:34;1.20;;;0.77;;
7116;SDS011;3600;48.568;7.870;2023-03-13T07:28:01;1.67;;;1.00;;
7116;SDS011;3600;48.568;7.870;2023-03-13T07:30:27;1.13;;;0.70;;
7116;SDS011;3600;48.568;7.870;2023-03-13T07:32:54;0.80;;;0.80;;
7116;SDS011;3600;48.568;7.870;2023-03-13T07:35:21;0.50;;;0.50;;
7116;SDS011;3600;48.568;7.870;2023-03-13T07:37:48;1.13;;;0.80;;
7116;SDS011;3600;48.568;7.870;2023-03-13T07:40:14;0.80;;;0.80;;
7116;SDS011;3600;48.568;7.870;2023-03-13T07:42:41;0.93;;;0.70;;
7116;SDS011;3600;48.568;7.870;2023-03-13T07:45:09;2.35;;;1.10;;
7116;SDS011;3600;48.568;7.870;2023-03-13T07:47:36;1.27;;;0.63;;
7116;SDS011;3600;48.568;7.870;2023-03-13T07:50:02;1.27;;;0.80;;
7116;SDS011;3600;48.568;7.870;2023-03-13T07:52:30;1.60;;;0.85;;
7116;SDS011;3600;48.568;7.870;2023-03-13T07:54:57;0.47;;;0.47;;
7116;SDS011;3600;48.568;7.870;2023-03-13T07:57:24;0.73;;;0.73;;
7116;SDS011;3600;48.568;7.870;2023-03-13T07:59:51;0.40;;;0.40;;
7116;SDS011;3600;48.568;7.870;2023-03-13T08:02:18;0.70;;;0.70;;
7116;SDS011;3600;48.568;7.870;2023-03-13T08:04:44;0.77;;;0.73;;
7116;SDS011;3600;48.568;7.870;2023-03-13T08:07:11;2.15;;;0.70;;
7116;SDS011;3600;48.568;7.870;2023-03-13T08:09:38;1.23;;;0.73;;
7116;SDS011;3600;48.568;7.870;2023-03-13T08:12:06;0.50;;;0.50;;
7116;SDS011;3600;48.568;7.870;2023-03-13T08:14:34;1.65;;;0.82;;
7116;SDS011;3600;48.568;7.870;2023-03-13T08:17:00;1.40;;;0.70;;
7116;SDS011;3600;48.568;7.870;2023-03-13T08:19:27;1.38;;;0.98;;
7116;SDS011;3600;48.568;7.870;2023-03-13T08:21:54;2.22;;;0.77;;
7116;SDS011;3600;48.568;7.870;2023-03-13T08:24:21;0.70;;;0.70;;
7116;SDS011;3600;48.568;7.870;2023-03-13T08:26:48;2.47;;;0.80;;
7116;SDS011;3600;48.568;7.870;2023-03-13T08:29:14;1.85;;;0.80;;
7116;SDS011;3600;48.568;7.870;2023-03-13T08:31:48;0.60;;;0.60;;
7116;SDS011;3600;48.568;7.870;2023-03-13T08:34:17;1.05;;;0.63;;
7116;SDS011;3600;48.568;7.870;2023-03-13T08:36:44;0.70;;;0.70;;
7116;SDS011;3600;48.568;7.870;2023-03-13T08:39:16;0.65;;;0.65;;
7116;SDS011;3600;48.568;7.870;2023-03-13T08:41:44;0.80;;;0.75;;
7116;SDS011;3600;48.568;7.870;2023-03-13T08:44:11;1.05;;;0.70;;
7116;SDS011;3600;48.568;7.870;2023-03-13T08:46:40;0.50;;;0.50;;
7116;SDS011;3600;48.568;7.870;2023-03-13T08:49:07;1.33;;;0.60;;
7116;SDS011;3600;48.568;7.870;2023-03-13T08:51:34;0.60;;;0.60;;
7116;SDS011;3600;48.568;7.870;2023-03-13T08:54:02;0.85;;;0.77;;
7116;SDS011;3600;48.568;7.870;2023-03-13T08:56:30;1.00;;;0.88;;
7116;SDS011;3600;48.568;7.870;2023-03-13T08:58:58;1.45;;;0.63;;
7116;SDS011;3600;48.568;7.870;2023-03-13T09:01:27;0.70;;;0.63;;
7116;SDS011;3600;48.568;7.870;2023-03-13T09:03:55;1.05;;;0.52;;
7116;SDS011;3600;48.568;7.870;2023-03-13T09:06:23;1.15;;;0.77;;
7116;SDS011;3600;48.568;7.870;2023-03-13T09:08:50;1.95;;;0.47;;
7116;SDS011;3600;48.568;7.870;2023-03-13T09:11:18;0.95;;;0.82;;
7116;SDS011;3600;48.568;7.870;2023-03-13T09:13:47;0.65;;;0.60;;
7116;SDS011;3600;48.568;7.870;2023-03-13T09:16:16;0.70;;;0.70;;
7116;SDS011;3600;48.568;7.870;2023-03-13T09:18:51;1.15;;;0.85;;
7116;SDS011;3600;48.568;7.870;2023-03-13T09:21:28;0.65;;;0.65;;
7116;SDS011;3600;48.568;7.870;2023-03-13T09:23:57;0.75;;;0.52;;
7116;SDS011;3600;48.568;7.870;2023-03-13T09:26:24;0.85;;;0.82;;
7116;SDS011;3600;48.568;7.870;2023-03-13T09:28:52;1.80;;;0.90;;
7116;SDS011;3600;48.568;7.870;2023-03-13T09:31:21;2.40;;;1.23;;
7116;SDS011;3600;48.568;7.870;2023-03-13T09:33:50;1.90;;;0.80;;
7116;SDS011;3600;48.568;7.870;2023-03-13T09:36:17;1.42;;;0.90;;
7116;SDS011;3600;48.568;7.870;2023-03-13T09:38:48;1.42;;;1.10;;
7116;SDS011;3600;48.568;7.870;2023-03-13T09:46:32;0.98;;;0.70;;
7116;SDS011;3600;48.568;7.870;2023-03-13T09:49:26;1.38;;;0.88;;
7116;SDS011;3600;48.568;7.870;2023-03-13T09:52:06;1.20;;;0.88;;
7116;SDS011;3600;48.568;7.870;2023-03-13T09:54:42;2.15;;;1.10;;
7116;SDS011;3600;48.568;7.870;2023-03-13T10:00:13;1.90;;;1.30;;
7116;SDS011;3600;48.568;7.870;2023-03-13T10:02:45;1.55;;;1.02;;
7116;SDS011;3600;48.568;7.870;2023-03-13T10:05:23;1.13;;;1.13;;
7116;SDS011;3600;48.568;7.870;2023-03-13T10:07:54;2.42;;;1.20;;
7116;SDS011;3600;48.568;7.870;2023-03-13T10:10:46;1.33;;;1.20;;
7116;SDS011;3600;48.568;7.870;2023-03-13T10:16:13;1.27;;;1.17;;
7116;SDS011;3600;48.568;7.870;2023-03-13T10:18:46;1.00;;;1.00;;
7116;SDS011;3600;48.568;7.870;2023-03-13T10:21:18;0.75;;;0.68;;
7116;SDS011;3600;48.568;7.870;2023-03-13T10:23:55;0.80;;;0.80;;
7116;SDS011;3600;48.568;7.870;2023-03-13T10:26:28;0.98;;;0.98;;
7116;SDS011;3600;48.568;7.870;2023-03-13T10:29:01;2.92;;;1.77;;
7116;SDS011;3600;48.568;7.870;2023-03-13T10:31:46;0.98;;;0.95;;
7116;SDS011;3600;48.568;7.870;2023-03-13T10:34:26;1.10;;;1.00;;
7116;SDS011;3600;48.568;7.870;2023-03-13T10:36:58;0.90;;;0.90;;
7116;SDS011;3600;48.568;7.870;2023-03-13T10:39:27;0.98;;;0.82;;
7116;SDS011;3600;48.568;7.870;2023-03-13T10:41:58;0.90;;;0.90;;
7116;SDS011;3600;48.568;7.870;2023-03-13T10:44:36;2.70;;;0.85;;
7116;SDS011;3600;48.568;7.870;2023-03-13T10:47:03;1.02;;;0.90;;
7116;SDS011;3600;48.568;7.870;2023-03-13T10:49:31;2.30;;;1.00;;
7116;SDS011;3600;48.568;7.870;2023-03-13T10:52:00;4.05;;;0.82;;
7116;SDS011;3600;48.568;7.870;2023-03-13T10:54:35;2.75;;;1.00;;
7116;SDS011;3600;48.568;7.870;2023-03-13T10:59:45;2.20;;;1.00;;
7116;SDS011;3600;48.568;7.870;2023-03-13T11:04:57;0.82;;;0.75;;
7116;SDS011;3600;48.568;7.870;2023-03-13T11:07:26;1.38;;;0.70;;
7116;SDS011;3600;48.568;7.870;2023-03-13T11:09:58;1.30;;;0.68;;
7116;SDS011;3600;48.568;7.870;2023-03-13T11:12:44;0.60;;;0.60;;
7116;SDS011;3600;48.568;7.870;2023-03-13T11:15:56;1.20;;;0.80;;
7116;SDS011;3600;48.568;7.870;2023-03-13T11:18:15;1.65;;;1.00;;
7116;SDS011;3600;48.568;7.870;2023-03-13T11:20:47;1.15;;;0.70;;
7116;SDS011;3600;48.568;7.870;2023-03-13T11:28:57;3.10;;;1.27;;
7116;SDS011;3600;48.568;7.870;2023-03-13T11:31:44;2.53;;;1.00;;
7116;SDS011;3600;48.568;7.870;2023-03-13T11:37:12;6.35;;;0.88;;
7116;SDS011;3600;48.568;7.870;2023-03-13T11:53:59;0.60;;;0.60;;
7116;SDS011;3600;48.568;7.870;2023-03-13T12:04:40;1.10;;;0.55;;
7116;SDS011;3600;48.568;7.870;2023-03-13T12:07:26;3.10;;;0.80;;
7116;SDS011;3600;48.568;7.870;2023-03-13T12:10:13;0.77;;;0.68;;
7116;SDS011;3600;48.568;7.870;2023-03-13T12:12:53;1.65;;;0.82;;
7116;SDS011;3600;48.568;7.870;2023-03-13T12:15:33;1.33;;;0.60;;
7116;SDS011;3600;48.568;7.870;2023-03-13T12:20:56;1.10;;;0.80;;
7116;SDS011;3600;48.568;7.870;2023-03-13T12:26:40;0.88;;;0.55;;
7116;SDS011;3600;48.568;7.870;2023-03-13T12:29:39;0.50;;;0.50;;
7116;SDS011;3600;48.568;7.870;2023-03-13T12:32:15;0.70;;;0.50;;
7116;SDS011;3600;48.568;7.870;2023-03-13T12:34:52;1.65;;;0.57;;
7116;SDS011;3600;48.568;7.870;2023-03-13T12:37:38;1.05;;;0.60;;
7116;SDS011;3600;48.568;7.870;2023-03-13T12:40:20;0.82;;;0.60;;
7116;SDS011;3600;48.568;7.870;2023-03-13T12:45:31;1.60;;;0.90;;
7116;SDS011;3600;48.568;7.870;2023-03-13T12:48:16;1.17;;;0.80;;
7116;SDS011;3600;48.568;7.870;2023-03-13T12:54:12;0.85;;;0.80;;
7116;SDS011;3600;48.568;7.870;2023-03-13T12:59:31;2.08;;;1.25;;
7116;SDS011;3600;48.568;7.870;2023-03-13T13:02:12;2.50;;;1.10;;
7116;SDS011;3600;48.568;7.870;2023-03-13T13:04:50;2.38;;;0.95;;
7116;SDS011;3600;48.568;7.870;2023-03-13T13:07:24;0.80;;;0.80;;
7116;SDS011;3600;48.568;7.870;2023-03-13T13:09:59;0.70;;;0.70;;
7116;SDS011;3600;48.568;7.870;2023-03-13T13:12:37;0.77;;;0.77;;
7116;SDS011;3600;48.568;7.870;2023-03-13T13:15:24;1.00;;;0.90;;
7116;SDS011;3600;48.568;7.870;2023-03-13T13:18:03;2.15;;;1.08;;
7116;SDS011;3600;48.568;7.870;2023-03-13T13:20:37;0.73;;;0.57;;
7116;SDS011;3600;48.568;7.870;2023-03-13T13:23:25;1.17;;;0.65;;
7116;SDS011;3600;48.568;7.870;2023-03-13T13:25:53;0.70;;;0.60;;
7116;SDS011;3600;48.568;7.870;2023-03-13T13:28:23;0.52;;;0.50;;
7116;SDS011;3600;48.568;7.870;2023-03-13T13:30:54;1.38;;;0.80;;
7116;SDS011;3600;48.568;7.870;2023-03-13T13:38:38;1.83;;;1.13;;
7116;SDS011;3600;48.568;7.870;2023-03-13T13:43:41;1.10;;;0.82;;
7116;SDS011;3600;48.568;7.870;2023-03-13T13:46:24;0.50;;;0.50;;
7116;SDS011;3600;48.568;7.870;2023-03-13T13:51:35;0.73;;;0.73;;
7116;SDS011;3600;48.568;7.870;2023-03-13T13:56:59;1.17;;;0.80;;
7116;SDS011;3600;48.568;7.870;2023-03-13T14:02:10;1.00;;;0.60;;
7116;SDS011;3600;48.568;7.870;2023-03-13T14:07:42;0.70;;;0.70;;
7116;SDS011;3600;48.568;7.870;2023-03-13T14:10:39;1.70;;;0.70;;
7116;SDS011;3600;48.568;7.870;2023-03-13T14:13:20;1.67;;;0.90;;
7116;SDS011;3600;48.568;7.870;2023-03-13T14:15:51;0.95;;;0.55;;
7116;SDS011;3600;48.568;7.870;2023-03-13T14:18:19;0.63;;;0.63;;
7116;SDS011;3600;48.568;7.870;2023-03-13T14:23:27;1.27;;;0.77;;
7116;SDS011;3600;48.568;7.870;2023-03-13T14:26:13;0.93;;;0.50;;
7116;SDS011;3600;48.568;7.870;2023-03-13T14:28:44;2.58;;;0.60;;
7116;SDS011;3600;48.568;7.870;2023-03-13T14:31:23;1.15;;;0.50;;
7116;SDS011;3600;48.568;7.870;2023-03-13T14:33:55;0.40;;;0.40;;
7116;SDS011;3600;48.568;7.870;2023-03-13T14:36:24;2.72;;;0.73;;
7116;SDS011;3600;48.568;7.870;2023-03-13T14:39:00;2.08;;;0.60;;
7116;SDS011;3600;48.568;7.870;2023-03-13T14:41:28;0.70;;;0.70;;
7116;SDS011;3600;48.568;7.870;2023-03-13T14:44:12;0.70;;;0.70;;
7116;SDS011;3600;48.568;7.870;2023-03-13T14:46:44;3.45;;;0.70;;
7116;SDS011;3600;48.568;7.870;2023-03-13T14:49:21;1.38;;;0.60;;
7116;SDS011;3600;48.568;7.870;2023-03-13T14:52:03;0.75;;;0.55;;
7116;SDS011;3600;48.568;7.870;2023-03-13T14:54:34;0.60;;;0.60;;
7116;SDS011;3600;48.568;7.870;2023-03-13T14:59:30;0.82;;;0.80;;
7116;SDS011;3600;48.568;7.870;2023-03-13T15:02:13;0.90;;;0.70;;
7116;SDS011;3600;48.568;7.870;2023-03-13T15:04:48;0.85;;;0.68;;
7116;SDS011;3600;48.568;7.870;2023-03-13T15:07:17;1.40;;;0.60;;
7116;SDS011;3600;48.568;7.870;2023-03-13T15:09:45;3.65;;;0.60;;
7116;SDS011;3600;48.568;7.870;2023-03-13T15:12:13;0.90;;;0.90;;
7116;SDS011;3600;48.568;7.870;2023-03-13T15:14:43;1.02;;;0.80;;
7116;SDS011;3600;48.568;7.870;2023-03-13T15:17:12;0.70;;;0.70;;
7116;SDS011;3600;48.568;7.870;2023-03-13T15:19:41;0.80;;;0.80;;
7116;SDS011;3600;48.568;7.870;2023-03-13T15:22:13;1.58;;;0.80;;
7116;SDS011;3600;48.568;7.870;2023-03-13T15:24:43;1.48;;;0.90;;
7116;SDS011;3600;48.568;7.870;2023-03-13T15:27:29;1.95;;;0.80;;
7116;SDS011;3600;48.568;7.870;2023-03-13T15:29:56;1.00;;;0.90;;
7116;SDS011;3600;48.568;7.870;2023-03-13T15:32:27;0.90;;;0.90;;
7116;SDS011;3600;48.568;7.870;2023-03-13T15:34:58;2.25;;;0.77;;
7116;SDS011;3600;48.568;7.870;2023-03-13T15:37:27;0.65;;;0.65;;
7116;SDS011;3600;48.568;7.870;2023-03-13T15:39:55;1.33;;;0.80;;
7116;SDS011;3600;48.568;7.870;2023-03-13T15:42:23;2.53;;;0.75;;
7116;SDS011;3600;48.568;7.870;2023-03-13T15:44:50;1.00;;;0.73;;
7116;SDS011;3600;48.568;7.870;2023-03-13T15:47:18;4.25;;;0.80;;
7116;SDS011;3600;48.568;7.870;2023-03-13T15:49:46;1.92;;;0.88;;
7116;SDS011;3600;48.568;7.870;2023-03-13T15:52:14;1.17;;;0.50;;
7116;SDS011;3600;48.568;7.870;2023-03-13T15:54:44;2.75;;;0.80;;
7116;SDS011;3600;48.568;7.870;2023-03-13T15:57:15;1.85;;;0.85;;
7116;SDS011;3600;48.568;7.870;2023-03-13T15:59:43;0.98;;;0.55;;
7116;SDS011;3600;48.568;7.870;2023-03-13T16:02:14;1.20;;;0.90;;
7116;SDS011;3600;48.568;7.870;2023-03-13T16:04:43;1.45;;;0.63;;
7116;SDS011;3600;48.568;7.870;2023-03-13T16:07:11;1.42;;;0.95;;
7116;SDS011;3600;48.568;7.870;2023-03-13T16:09:39;2.38;;;1.00;;
7116;SDS011;3600;48.568;7.870;2023-03-13T16:12:07;1.08;;;0.98;;
7116;SDS011;3600;48.568;7.870;2023-03-13T16:14:35;4.30;;;0.80;;
7116;SDS011;3600;48.568;7.870;2023-03-13T16:17:02;0.70;;;0.70;;
7116;SDS011;3600;48.568;7.870;2023-03-13T16:19:38;1.23;;;1.13;;
7116;SDS011;3600;48.568;7.870;2023-03-13T16:22:05;0.90;;;0.90;;
7116;SDS011;3600;48.568;7.870;2023-03-13T16:24:31;1.85;;;0.80;;
7116;SDS011;3600;48.568;7.870;2023-03-13T16:26:58;2.63;;;0.98;;
7116;SDS011;3600;48.568;7.870;2023-03-13T16:29:25;0.60;;;0.60;;
7116;SDS011;3600;48.568;7.870;2023-03-13T16:31:53;0.63;;;0.63;;
7116;SDS011;3600;48.568;7.870;2023-03-13T16:34:19;1.33;;;1.23;;
7116;SDS011;3600;48.568;7.870;2023-03-13T16:36:46;0.93;;;0.70;;
7116;SDS011;3600;48.568;7.870;2023-03-13T16:39:13;0.75;;;0.70;;
7116;SDS011;3600;48.568;7.870;2023-03-13T16:41:41;0.60;;;0.50;;
7116;SDS011;3600;48.568;7.870;2023-03-13T16:44:08;1.13;;;0.95;;
7116;SDS011;3600;48.568;7.870;2023-03-13T16:46:39;0.90;;;0.85;;
7116;SDS011;3600;48.568;7.870;2023-03-13T16:49:15;0.60;;;0.55;;
7116;SDS011;3600;48.568;7.870;2023-03-13T16:51:41;0.60;;;0.60;;
7116;SDS011;3600;48.568;7.870;2023-03-13T16:54:08;2.42;;;0.90;;
7116;SDS011;3600;48.568;7.870;2023-03-13T16:56:38;2.67;;;0.70;;
7116;SDS011;3600;48.568;7.870;2023-03-13T16:59:14;0.98;;;0.77;;
7116;SDS011;3600;48.568;7.870;2023-03-13T17:01:46;1.20;;;1.20;;
7116;SDS011;3600;48.568;7.870;2023-03-13T17:04:13;1.02;;;1.00;;
7116;SDS011;3600;48.568;7.870;2023-03-13T17:06:41;4.13;;;1.77;;
7116;SDS011;3600;48.568;7.870;2023-03-13T17:09:11;1.55;;;1.33;;
7116;SDS011;3600;48.568;7.870;2023-03-13T17:11:40;2.05;;;1.10;;